sensor_id;sensor_type;location;lat;lon;timestamp;pressure;altitude;pressure_sealevel;temperature;humidity
76553;BME280;65395;53.168;18.156;2023-12-28T00:01:46;101156.84;;;-0.23;88.12
76553;BME280;65395;53.168;18.156;2023-12-28T00:04:13;101153.84;;;-0.30;87.79
76553;BME280;65395;53.168;18.156;2023-12-28T00:06:40;101149.57;;;-0.36;87.87
76553;BME280;65395;53.168;18.156;2023-12-28T00:09:08;101153.88;;;-0.39;88.19
76553;BME280;65395;53.168;18.156;2023-12-28T00:11:36;101152.30;;;-0.43;88.21
76553;BME280;65395;53.168;18.156;2023-12-28T00:14:03;101137.16;;;-0.46;88.22
76553;BME280;65395;53.168;18.156;2023-12-28T00:16:31;101127.15;;;-0.50;88.20
76553;BME280;65395;53.168;18.156;2023-12-28T00:18:59;101132.21;;;-0.53;88.35
76553;BME280;65395;53.168;18.156;2023-12-28T00:21:28;101125.97;;;-0.55;88.47
76553;BME280;65395;53.168;18.156;2023-12-28T00:23:55;101123.73;;;-0.57;88.59
76553;BME280;65395;53.168;18.156;2023-12-28T00:26:22;101121.03;;;-0.58;88.52
76553;BME280;65395;53.168;18.156;2023-12-28T00:28:52;101118.60;;;-0.60;88.62
76553;BME280;65395;53.168;18.156;2023-12-28T00:31:19;101107.96;;;-0.63;88.62
76553;BME280;65395;53.168;18.156;2023-12-28T00:33:46;101096.09;;;-0.63;88.64
76553;BME280;65395;53.168;18.156;2023-12-28T00:36:13;101084.15;;;-0.64;88.80
76553;BME280;65395;53.168;18.156;2023-12-28T00:38:40;101073.08;;;-0.65;88.96
76553;BME280;65395;53.168;18.156;2023-12-28T00:41:07;101080.40;;;-0.67;88.87
76553;BME280;65395;53.168;18.156;2023-12-28T00:43:34;101084.06;;;-0.69;89.11
76553;BME280;65395;53.168;18.156;2023-12-28T00:46:02;101081.33;;;-0.70;89.22
76553;BME280;65395;53.168;18.156;2023-12-28T00:48:28;101066.91;;;-0.71;89.28
76553;BME280;65395;53.168;18.156;2023-12-28T00:50:55;101061.79;;;-0.72;89.43
76553;BME280;65395;53.168;18.156;2023-12-28T00:53:26;101063.27;;;-0.74;89.27
76553;BME280;65395;53.168;18.156;2023-12-28T00:55:53;101060.71;;;-0.78;89.38
76553;BME280;65395;53.168;18.156;2023-12-28T00:58:20;101052.91;;;-0.80;89.42
76553;BME280;65395;53.168;18.156;2023-12-28T01:00:47;101047.41;;;-0.82;89.39
76553;BME280;65395;53.168;18.156;2023-12-28T01:03:14;101043.92;;;-0.82;89.26
76553;BME280;65395;53.168;18.156;2023-12-28T01:05:41;101036.83;;;-0.82;89.41
76553;BME280;65395;53.168;18.156;2023-12-28T01:08:08;101038.42;;;-0.80;89.74
76553;BME280;65395;53.168;18.156;2023-12-28T01:10:35;101037.38;;;-0.77;89.79
76553;BME280;65395;53.168;18.156;2023-12-28T01:13:02;101023.84;;;-0.72;89.91
76553;BME280;65395;53.168;18.156;2023-12-28T01:15:29;101013.20;;;-0.69;89.96
76553;BME280;65395;53.168;18.156;2023-12-28T01:17:56;100998.38;;;-0.67;90.22
76553;BME280;65395;53.168;18.156;2023-12-28T01:20:24;100994.15;;;-0.63;90.19
76553;BME280;65395;53.168;18.156;2023-12-28T01:22:51;100991.47;;;-0.59;90.49
76553;BME280;65395;53.168;18.156;2023-12-28T01:25:18;100997.55;;;-0.55;90.59
76553;BME280;65395;53.168;18.156;2023-12-28T01:27:45;101002.44;;;-0.53;90.65
76553;BME280;65395;53.168;18.156;2023-12-28T01:30:12;101007.70;;;-0.51;90.69
76553;BME280;65395;53.168;18.156;2023-12-28T01:32:39;101013.59;;;-0.49;90.53
76553;BME280;65395;53.168;18.156;2023-12-28T01:35:06;101009.16;;;-0.46;90.61
76553;BME280;65395;53.168;18.156;2023-12-28T01:37:34;101008.03;;;-0.44;90.54
76553;BME280;65395;53.168;18.156;2023-12-28T01:40:01;101001.30;;;-0.42;90.41
76553;BME280;65395;53.168;18.156;2023-12-28T01:42:30;100998.14;;;-0.42;90.34
76553;BME280;65395;53.168;18.156;2023-12-28T01:44:58;100992.21;;;-0.41;90.30
76553;BME280;65395;53.168;18.156;2023-12-28T01:47:25;100977.90;;;-0.39;90.38
76553;BME280;65395;53.168;18.156;2023-12-28T01:49:53;100962.71;;;-0.38;90.11
76553;BME280;65395;53.168;18.156;2023-12-28T01:52:20;100950.17;;;-0.40;90.12
76553;BME280;65395;53.168;18.156;2023-12-28T01:54:47;100955.00;;;-0.39;90.16
76553;BME280;65395;53.168;18.156;2023-12-28T01:57:15;100950.09;;;-0.40;90.09
76553;BME280;65395;53.168;18.156;2023-12-28T01:59:43;100937.14;;;-0.40;90.14
76553;BME280;65395;53.168;18.156;2023-12-28T02:02:10;100933.41;;;-0.41;90.09
76553;BME280;65395;53.168;18.156;2023-12-28T02:04:38;100925.36;;;-0.41;90.25
76553;BME280;65395;53.168;18.156;2023-12-28T02:07:05;100924.13;;;-0.41;90.17
76553;BME280;65395;53.168;18.156;2023-12-28T02:09:33;100913.72;;;-0.39;90.47
76553;BME280;65395;53.168;18.156;2023-12-28T02:12:01;100909.92;;;-0.38;90.25
76553;BME280;65395;53.168;18.156;2023-12-28T02:14:28;100898.70;;;-0.38;90.34
76553;BME280;65395;53.168;18.156;2023-12-28T02:17:04;100891.36;;;-0.39;90.32
76553;BME280;65395;53.168;18.156;2023-12-28T02:19:47;100885.55;;;-0.39;90.23
76553;BME280;65395;53.168;18.156;2023-12-28T02:22:16;100879.22;;;-0.40;90.27
76553;BME280;65395;53.168;18.156;2023-12-28T02:25:04;100878.98;;;-0.40;90.34
76553;BME280;65395;53.168;18.156;2023-12-28T02:27:40;100872.24;;;-0.39;90.27
76553;BME280;65395;53.168;18.156;2023-12-28T02:30:09;100863.19;;;-0.39;90.38
76553;BME280;65395;53.168;18.156;2023-12-28T02:35:23;100840.70;;;-0.39;90.35
76553;BME280;65395;53.168;18.156;2023-12-28T02:37:53;100838.50;;;-0.37;90.37
76553;BME280;65395;53.168;18.156;2023-12-28T02:40:23;100827.36;;;-0.35;90.36
76553;BME280;65395;53.168;18.156;2023-12-28T02:42:50;100824.16;;;-0.32;90.59
76553;BME280;65395;53.168;18.156;2023-12-28T02:45:18;100816.54;;;-0.29;90.52
76553;BME280;65395;53.168;18.156;2023-12-28T02:47:45;100812.81;;;-0.28;90.51
76553;BME280;65395;53.168;18.156;2023-12-28T02:50:12;100792.30;;;-0.28;90.30
76553;BME280;65395;53.168;18.156;2023-12-28T02:52:39;100783.80;;;-0.26;90.23
76553;BME280;65395;53.168;18.156;2023-12-28T02:55:07;100778.16;;;-0.26;90.30
76553;BME280;65395;53.168;18.156;2023-12-28T02:57:34;100774.66;;;-0.25;90.11
76553;BME280;65395;53.168;18.156;2023-12-28T03:00:05;100764.92;;;-0.24;90.26
76553;BME280;65395;53.168;18.156;2023-12-28T03:02:33;100757.30;;;-0.22;90.31
76553;BME280;65395;53.168;18.156;2023-12-28T03:05:00;100746.52;;;-0.20;90.27
76553;BME280;65395;53.168;18.156;2023-12-28T03:07:26;100746.42;;;-0.18;90.22
76553;BME280;65395;53.168;18.156;2023-12-28T03:09:53;100734.02;;;-0.17;90.17
76553;BME280;65395;53.168;18.156;2023-12-28T03:12:20;100718.08;;;-0.17;90.17
76553;BME280;65395;53.168;18.156;2023-12-28T03:14:49;100712.78;;;-0.17;90.10
76553;BME280;65395;53.168;18.156;2023-12-28T03:17:16;100709.06;;;-0.17;90.04
76553;BME280;65395;53.168;18.156;2023-12-28T03:19:43;100705.88;;;-0.16;90.07
76553;BME280;65395;53.168;18.156;2023-12-28T03:22:10;100704.41;;;-0.16;90.19
76553;BME280;65395;53.168;18.156;2023-12-28T03:24:37;100700.74;;;-0.15;90.03
76553;BME280;65395;53.168;18.156;2023-12-28T03:27:05;100693.02;;;-0.15;90.08
76553;BME280;65395;53.168;18.156;2023-12-28T03:29:32;100679.88;;;-0.13;90.26
76553;BME280;65395;53.168;18.156;2023-12-28T03:32:01;100676.55;;;-0.11;90.14
76553;BME280;65395;53.168;18.156;2023-12-28T03:34:28;100681.68;;;-0.10;90.04
76553;BME280;65395;53.168;18.156;2023-12-28T03:36:56;100682.56;;;-0.08;90.04
76553;BME280;65395;53.168;18.156;2023-12-28T03:39:24;100678.52;;;-0.06;89.89
76553;BME280;65395;53.168;18.156;2023-12-28T03:41:51;100678.43;;;-0.04;89.95
76553;BME280;65395;53.168;18.156;2023-12-28T03:44:20;100687.23;;;-0.02;90.00
76553;BME280;65395;53.168;18.156;2023-12-28T03:46:49;100690.39;;;0.01;89.96
76553;BME280;65395;53.168;18.156;2023-12-28T03:49:18;100692.82;;;0.03;89.97
76553;BME280;65395;53.168;18.156;2023-12-28T03:51:45;100695.04;;;0.04;89.82
76553;BME280;65395;53.168;18.156;2023-12-28T03:54:12;100690.29;;;0.05;89.66
76553;BME280;65395;53.168;18.156;2023-12-28T03:56:42;100679.72;;;0.05;89.65
76553;BME280;65395;53.168;18.156;2023-12-28T03:59:10;100672.79;;;0.05;89.68
76553;BME280;65395;53.168;18.156;2023-12-28T04:01:37;100660.54;;;0.06;89.77
76553;BME280;65395;53.168;18.156;2023-12-28T04:04:04;100645.80;;;0.08;89.75
76553;BME280;65395;53.168;18.156;2023-12-28T04:06:31;100638.28;;;0.11;89.78
76553;BME280;65395;53.168;18.156;2023-12-28T04:08:58;100632.50;;;0.14;89.87
76553;BME280;65395;53.168;18.156;2023-12-28T04:11:25;100628.48;;;0.18;89.77
76553;BME280;65395;53.168;18.156;2023-12-28T04:13:52;100637.33;;;0.21;89.72
76553;BME280;65395;53.168;18.156;2023-12-28T04:16:19;100631.77;;;0.23;89.50
76553;BME280;65395;53.168;18.156;2023-12-28T04:18:46;100631.00;;;0.23;89.57
76553;BME280;65395;53.168;18.156;2023-12-28T04:21:13;100627.96;;;0.24;89.53
76553;BME280;65395;53.168;18.156;2023-12-28T04:23:41;100612.55;;;0.23;89.60
76553;BME280;65395;53.168;18.156;2023-12-28T04:26:08;100602.38;;;0.23;89.58
76553;BME280;65395;53.168;18.156;2023-12-28T04:28:35;100596.31;;;0.23;89.66
76553;BME280;65395;53.168;18.156;2023-12-28T04:31:03;100603.48;;;0.23;89.73
76553;BME280;65395;53.168;18.156;2023-12-28T04:33:31;100599.13;;;0.24;89.63
76553;BME280;65395;53.168;18.156;2023-12-28T04:36:02;100588.11;;;0.25;89.73
76553;BME280;65395;53.168;18.156;2023-12-28T04:38:31;100576.54;;;0.26;89.54
76553;BME280;65395;53.168;18.156;2023-12-28T04:40:59;100560.63;;;0.28;89.82
76553;BME280;65395;53.168;18.156;2023-12-28T04:43:26;100553.21;;;0.32;89.76
76553;BME280;65395;53.168;18.156;2023-12-28T04:45:53;100560.91;;;0.35;89.90
76553;BME280;65395;53.168;18.156;2023-12-28T04:48:20;100576.77;;;0.38;89.77
76553;BME280;65395;53.168;18.156;2023-12-28T04:50:50;100582.05;;;0.42;89.74
76553;BME280;65395;53.168;18.156;2023-12-28T04:53:17;100586.08;;;0.46;89.73
76553;BME280;65395;53.168;18.156;2023-12-28T04:55:44;100598.50;;;0.48;89.51
76553;BME280;65395;53.168;18.156;2023-12-28T04:58:11;100596.42;;;0.52;89.55
76553;BME280;65395;53.168;18.156;2023-12-28T05:00:39;100584.16;;;0.55;89.80
76553;BME280;65395;53.168;18.156;2023-12-28T05:03:06;100582.54;;;0.59;89.61
76553;BME280;65395;53.168;18.156;2023-12-28T05:05:33;100584.03;;;0.61;89.57
76553;BME280;65395;53.168;18.156;2023-12-28T05:08:00;100586.27;;;0.63;89.48
76553;BME280;65395;53.168;18.156;2023-12-28T05:10:27;100567.10;;;0.64;89.36
76553;BME280;65395;53.168;18.156;2023-12-28T05:12:54;100569.73;;;0.65;89.48
76553;BME280;65395;53.168;18.156;2023-12-28T05:15:22;100576.52;;;0.66;89.52
76553;BME280;65395;53.168;18.156;2023-12-28T05:17:49;100562.75;;;0.68;89.41
76553;BME280;65395;53.168;18.156;2023-12-28T05:20:17;100564.19;;;0.70;89.43
76553;BME280;65395;53.168;18.156;2023-12-28T05:22:44;100568.19;;;0.72;89.45
76553;BME280;65395;53.168;18.156;2023-12-28T05:25:11;100559.05;;;0.74;89.32
76553;BME280;65395;53.168;18.156;2023-12-28T05:27:38;100555.27;;;0.78;89.35
76553;BME280;65395;53.168;18.156;2023-12-28T05:30:07;100554.15;;;0.82;89.19
76553;BME280;65395;53.168;18.156;2023-12-28T05:32:35;100559.09;;;0.86;89.30
76553;BME280;65395;53.168;18.156;2023-12-28T05:35:02;100560.44;;;0.89;89.16
76553;BME280;65395;53.168;18.156;2023-12-28T05:37:30;100565.00;;;0.93;89.13
76553;BME280;65395;53.168;18.156;2023-12-28T05:39:57;100555.89;;;0.96;89.27
76553;BME280;65395;53.168;18.156;2023-12-28T05:42:24;100541.18;;;0.99;89.21
76553;BME280;65395;53.168;18.156;2023-12-28T05:44:51;100556.05;;;1.03;89.15
76553;BME280;65395;53.168;18.156;2023-12-28T05:47:18;100536.08;;;1.06;89.13
76553;BME280;65395;53.168;18.156;2023-12-28T05:49:45;100538.81;;;1.09;89.06
76553;BME280;65395;53.168;18.156;2023-12-28T05:52:11;100515.81;;;1.14;89.16
76553;BME280;65395;53.168;18.156;2023-12-28T05:54:42;100525.11;;;1.19;89.31
76553;BME280;65395;53.168;18.156;2023-12-28T05:57:10;100529.91;;;1.24;89.22
76553;BME280;65395;53.168;18.156;2023-12-28T05:59:38;100532.29;;;1.29;89.07
76553;BME280;65395;53.168;18.156;2023-12-28T06:02:06;100530.58;;;1.33;88.96
76553;BME280;65395;53.168;18.156;2023-12-28T06:04:34;100530.39;;;1.37;88.83
76553;BME280;65395;53.168;18.156;2023-12-28T06:07:03;100513.73;;;1.40;88.79
76553;BME280;65395;53.168;18.156;2023-12-28T06:09:31;100498.34;;;1.44;88.88
76553;BME280;65395;53.168;18.156;2023-12-28T06:11:58;100498.49;;;1.48;88.82
76553;BME280;65395;53.168;18.156;2023-12-28T06:14:25;100495.09;;;1.52;88.67
76553;BME280;65395;53.168;18.156;2023-12-28T06:16:52;100492.16;;;1.56;88.73
76553;BME280;65395;53.168;18.156;2023-12-28T06:19:19;100492.89;;;1.59;88.54
76553;BME280;65395;53.168;18.156;2023-12-28T06:21:46;100492.70;;;1.63;88.73
76553;BME280;65395;53.168;18.156;2023-12-28T06:24:13;100495.98;;;1.66;88.52
76553;BME280;65395;53.168;18.156;2023-12-28T06:26:43;100498.90;;;1.69;88.43
76553;BME280;65395;53.168;18.156;2023-12-28T06:29:11;100510.30;;;1.72;88.70
76553;BME280;65395;53.168;18.156;2023-12-28T06:31:37;100513.93;;;1.75;88.37
76553;BME280;65395;53.168;18.156;2023-12-28T06:34:05;100515.95;;;1.77;88.57
76553;BME280;65395;53.168;18.156;2023-12-28T06:36:32;100518.23;;;1.79;88.37
76553;BME280;65395;53.168;18.156;2023-12-28T06:39:00;100517.25;;;1.82;88.39
76553;BME280;65395;53.168;18.156;2023-12-28T06:41:26;100511.20;;;1.85;88.35
76553;BME280;65395;53.168;18.156;2023-12-28T06:43:53;100516.09;;;1.88;88.32
76553;BME280;65395;53.168;18.156;2023-12-28T06:46:20;100511.14;;;1.92;88.36
76553;BME280;65395;53.168;18.156;2023-12-28T06:48:48;100515.45;;;1.94;88.27
76553;BME280;65395;53.168;18.156;2023-12-28T06:51:17;100527.15;;;1.97;88.26
76553;BME280;65395;53.168;18.156;2023-12-28T06:53:45;100533.82;;;2.01;88.38
76553;BME280;65395;53.168;18.156;2023-12-28T06:56:12;100532.59;;;2.04;88.29
76553;BME280;65395;53.168;18.156;2023-12-28T06:58:40;100536.18;;;2.07;88.29
76553;BME280;65395;53.168;18.156;2023-12-28T07:01:07;100540.28;;;2.09;88.26
76553;BME280;65395;53.168;18.156;2023-12-28T07:03:34;100547.15;;;2.12;88.44
76553;BME280;65395;53.168;18.156;2023-12-28T07:06:02;100550.27;;;2.16;88.54
76553;BME280;65395;53.168;18.156;2023-12-28T07:08:29;100550.75;;;2.19;88.45
76553;BME280;65395;53.168;18.156;2023-12-28T07:10:56;100553.02;;;2.24;88.52
76553;BME280;65395;53.168;18.156;2023-12-28T07:13:25;100552.55;;;2.27;88.55
76553;BME280;65395;53.168;18.156;2023-12-28T07:15:52;100555.56;;;2.28;88.64
76553;BME280;65395;53.168;18.156;2023-12-28T07:18:20;100555.77;;;2.32;88.96
76553;BME280;65395;53.168;18.156;2023-12-28T07:20:47;100553.26;;;2.36;89.33
76553;BME280;65395;53.168;18.156;2023-12-28T07:23:14;100558.62;;;2.39;89.32
76553;BME280;65395;53.168;18.156;2023-12-28T07:25:41;100563.14;;;2.43;89.57
76553;BME280;65395;53.168;18.156;2023-12-28T07:28:08;100559.31;;;2.46;89.56
76553;BME280;65395;53.168;18.156;2023-12-28T07:30:36;100560.47;;;2.50;89.72
76553;BME280;65395;53.168;18.156;2023-12-28T07:33:03;100567.20;;;2.53;89.73
76553;BME280;65395;53.168;18.156;2023-12-28T07:35:30;100570.98;;;2.59;89.94
76553;BME280;65395;53.168;18.156;2023-12-28T07:37:57;100575.50;;;2.65;89.99
76553;BME280;65395;53.168;18.156;2023-12-28T07:40:24;100578.23;;;2.72;90.01
76553;BME280;65395;53.168;18.156;2023-12-28T07:42:51;100577.98;;;2.79;89.97
76553;BME280;65395;53.168;18.156;2023-12-28T07:45:18;100576.83;;;2.85;90.07
76553;BME280;65395;53.168;18.156;2023-12-28T07:47:50;100577.77;;;2.91;90.07
76553;BME280;65395;53.168;18.156;2023-12-28T07:50:18;100581.47;;;2.99;90.11
76553;BME280;65395;53.168;18.156;2023-12-28T07:52:47;100581.90;;;3.06;90.13
76553;BME280;65395;53.168;18.156;2023-12-28T07:55:15;100578.23;;;3.14;90.16
76553;BME280;65395;53.168;18.156;2023-12-28T07:57:42;100573.62;;;3.22;90.25
76553;BME280;65395;53.168;18.156;2023-12-28T08:00:10;100564.88;;;3.30;90.20
76553;BME280;65395;53.168;18.156;2023-12-28T08:02:37;100582.28;;;3.38;89.95
76553;BME280;65395;53.168;18.156;2023-12-28T08:05:05;100586.60;;;3.44;89.99
76553;BME280;65395;53.168;18.156;2023-12-28T08:07:32;100588.09;;;3.50;89.88
76553;BME280;65395;53.168;18.156;2023-12-28T08:09:59;100594.48;;;3.56;89.93
76553;BME280;65395;53.168;18.156;2023-12-28T08:12:26;100593.92;;;3.62;90.11
76553;BME280;65395;53.168;18.156;2023-12-28T08:14:55;100596.23;;;3.67;90.25
76553;BME280;65395;53.168;18.156;2023-12-28T08:17:22;100597.59;;;3.71;90.30
76553;BME280;65395;53.168;18.156;2023-12-28T08:19:49;100592.72;;;3.77;90.35
76553;BME280;65395;53.168;18.156;2023-12-28T08:22:16;100592.02;;;3.82;90.47
76553;BME280;65395;53.168;18.156;2023-12-28T08:24:43;100593.85;;;3.88;90.40
76553;BME280;65395;53.168;18.156;2023-12-28T08:27:10;100594.56;;;3.95;90.38
76553;BME280;65395;53.168;18.156;2023-12-28T08:29:37;100599.91;;;4.01;90.18
76553;BME280;65395;53.168;18.156;2023-12-28T08:32:06;100599.34;;;4.06;90.06
76553;BME280;65395;53.168;18.156;2023-12-28T08:34:33;100598.27;;;4.12;89.99
76553;BME280;65395;53.168;18.156;2023-12-28T08:37:00;100591.38;;;4.18;89.85
76553;BME280;65395;53.168;18.156;2023-12-28T08:39:27;100597.44;;;4.22;89.79
76553;BME280;65395;53.168;18.156;2023-12-28T08:41:55;100605.02;;;4.27;89.71
76553;BME280;65395;53.168;18.156;2023-12-28T08:44:22;100598.80;;;4.31;89.64
76553;BME280;65395;53.168;18.156;2023-12-28T08:46:49;100602.90;;;4.34;89.75
76553;BME280;65395;53.168;18.156;2023-12-28T08:49:15;100606.67;;;4.35;89.69
76553;BME280;65395;53.168;18.156;2023-12-28T08:51:42;100614.45;;;4.36;89.73
76553;BME280;65395;53.168;18.156;2023-12-28T08:54:09;100617.33;;;4.37;89.74
76553;BME280;65395;53.168;18.156;2023-12-28T08:56:36;100615.59;;;4.39;89.76
76553;BME280;65395;53.168;18.156;2023-12-28T08:59:03;100621.77;;;4.40;89.77
76553;BME280;65395;53.168;18.156;2023-12-28T09:01:30;100618.84;;;4.41;89.84
76553;BME280;65395;53.168;18.156;2023-12-28T09:03:58;100617.73;;;4.44;89.95
76553;BME280;65395;53.168;18.156;2023-12-28T09:06:25;100621.75;;;4.49;89.92
76553;BME280;65395;53.168;18.156;2023-12-28T09:08:52;100628.88;;;4.56;89.98
76553;BME280;65395;53.168;18.156;2023-12-28T09:11:20;100622.36;;;4.63;90.00
76553;BME280;65395;53.168;18.156;2023-12-28T09:13:47;100617.05;;;4.70;89.84
76553;BME280;65395;53.168;18.156;2023-12-28T09:16:15;100622.32;;;4.75;89.82
76553;BME280;65395;53.168;18.156;2023-12-28T09:18:42;100619.91;;;4.81;89.84
76553;BME280;65395;53.168;18.156;2023-12-28T09:21:09;100617.11;;;4.87;89.83
76553;BME280;65395;53.168;18.156;2023-12-28T09:23:37;100617.38;;;4.95;89.82
76553;BME280;65395;53.168;18.156;2023-12-28T09:26:05;100610.29;;;5.02;89.67
76553;BME280;65395;53.168;18.156;2023-12-28T09:28:33;100610.45;;;5.09;89.67
76553;BME280;65395;53.168;18.156;2023-12-28T09:31:01;100616.51;;;5.15;89.63
76553;BME280;65395;53.168;18.156;2023-12-28T09:33:28;100616.77;;;5.21;89.47
76553;BME280;65395;53.168;18.156;2023-12-28T09:35:55;100611.20;;;5.26;89.39
76553;BME280;65395;53.168;18.156;2023-12-28T09:38:22;100609.09;;;5.30;89.36
76553;BME280;65395;53.168;18.156;2023-12-28T09:40:52;100611.17;;;5.36;89.39
76553;BME280;65395;53.168;18.156;2023-12-28T09:43:24;100611.38;;;5.42;89.40
76553;BME280;65395;53.168;18.156;2023-12-28T09:45:53;100613.30;;;5.49;89.34
76553;BME280;65395;53.168;18.156;2023-12-28T09:48:21;100618.30;;;5.54;89.29
76553;BME280;65395;53.168;18.156;2023-12-28T09:50:49;100619.42;;;5.59;89.07
76553;BME280;65395;53.168;18.156;2023-12-28T09:53:17;100625.88;;;5.63;88.96
76553;BME280;65395;53.168;18.156;2023-12-28T09:55:45;100623.23;;;5.66;88.86
76553;BME280;65395;53.168;18.156;2023-12-28T09:58:13;100614.69;;;5.70;88.72
76553;BME280;65395;53.168;18.156;2023-12-28T10:00:44;100617.37;;;5.75;88.69
76553;BME280;65395;53.168;18.156;2023-12-28T10:03:12;100609.81;;;5.80;88.66
76553;BME280;65395;53.168;18.156;2023-12-28T10:05:41;100611.08;;;5.85;88.59
76553;BME280;65395;53.168;18.156;2023-12-28T10:08:10;100616.02;;;5.90;88.51
76553;BME280;65395;53.168;18.156;2023-12-28T10:10:37;100616.98;;;5.94;88.43
76553;BME280;65395;53.168;18.156;2023-12-28T10:13:07;100615.64;;;6.00;88.36
76553;BME280;65395;53.168;18.156;2023-12-28T10:15:35;100610.38;;;6.04;88.14
76553;BME280;65395;53.168;18.156;2023-12-28T10:18:02;100610.39;;;6.07;87.91
76553;BME280;65395;53.168;18.156;2023-12-28T10:20:30;100617.68;;;6.09;87.73
76553;BME280;65395;53.168;18.156;2023-12-28T10:22:58;100619.05;;;6.12;87.78
76553;BME280;65395;53.168;18.156;2023-12-28T10:25:25;100616.60;;;6.15;87.71
76553;BME280;65395;53.168;18.156;2023-12-28T10:27:52;100614.18;;;6.17;87.44
76553;BME280;65395;53.168;18.156;2023-12-28T10:30:21;100614.05;;;6.19;87.58
76553;BME280;65395;53.168;18.156;2023-12-28T10:32:48;100615.52;;;6.22;87.27
76553;BME280;65395;53.168;18.156;2023-12-28T10:35:15;100614.06;;;6.25;87.18
76553;BME280;65395;53.168;18.156;2023-12-28T10:37:43;100609.48;;;6.28;86.92
76553;BME280;65395;53.168;18.156;2023-12-28T10:40:13;100610.99;;;6.31;86.56
76553;BME280;65395;53.168;18.156;2023-12-28T10:42:57;100603.72;;;6.31;86.20
76553;BME280;65395;53.168;18.156;2023-12-28T10:45:31;100610.59;;;6.33;86.27
76553;BME280;65395;53.168;18.156;2023-12-28T10:48:07;100614.67;;;6.34;86.10
76553;BME280;65395;53.168;18.156;2023-12-28T10:50:47;100613.89;;;6.36;86.01
76553;BME280;65395;53.168;18.156;2023-12-28T10:56:20;100606.42;;;6.38;85.76
76553;BME280;65395;53.168;18.156;2023-12-28T10:58:50;100609.14;;;6.38;85.42
76553;BME280;65395;53.168;18.156;2023-12-28T11:01:24;100611.48;;;6.39;85.17
76553;BME280;65395;53.168;18.156;2023-12-28T11:03:59;100608.67;;;6.41;85.19
76553;BME280;65395;53.168;18.156;2023-12-28T11:06:31;100604.27;;;6.43;85.04
76553;BME280;65395;53.168;18.156;2023-12-28T11:08:59;100606.16;;;6.45;85.09
76553;BME280;65395;53.168;18.156;2023-12-28T11:11:28;100605.85;;;6.46;85.00
76553;BME280;65395;53.168;18.156;2023-12-28T11:13:55;100605.59;;;6.48;84.84
76553;BME280;65395;53.168;18.156;2023-12-28T11:16:24;100599.36;;;6.50;84.66
76553;BME280;65395;53.168;18.156;2023-12-28T11:18:51;100596.80;;;6.51;84.70
76553;BME280;65395;53.168;18.156;2023-12-28T11:21:19;100593.20;;;6.54;84.58
76553;BME280;65395;53.168;18.156;2023-12-28T11:23:47;100593.14;;;6.56;84.45
76553;BME280;65395;53.168;18.156;2023-12-28T11:26:17;100591.00;;;6.59;84.19
76553;BME280;65395;53.168;18.156;2023-12-28T11:28:44;100588.87;;;6.61;84.29
76553;BME280;65395;53.168;18.156;2023-12-28T11:31:15;100583.57;;;6.63;84.37
76553;BME280;65395;53.168;18.156;2023-12-28T11:33:44;100580.49;;;6.66;84.24
76553;BME280;65395;53.168;18.156;2023-12-28T11:36:11;100583.21;;;6.68;84.13
76553;BME280;65395;53.168;18.156;2023-12-28T11:38:40;100585.21;;;6.72;84.13
76553;BME280;65395;53.168;18.156;2023-12-28T11:41:08;100585.90;;;6.74;83.81
76553;BME280;65395;53.168;18.156;2023-12-28T11:43:35;100583.70;;;6.76;83.60
76553;BME280;65395;53.168;18.156;2023-12-28T11:46:03;100579.45;;;6.79;83.68
76553;BME280;65395;53.168;18.156;2023-12-28T11:48:32;100579.88;;;6.81;83.64
76553;BME280;65395;53.168;18.156;2023-12-28T11:51:00;100577.04;;;6.82;83.28
76553;BME280;65395;53.168;18.156;2023-12-28T11:53:28;100573.02;;;6.83;83.30
76553;BME280;65395;53.168;18.156;2023-12-28T11:56:02;100569.45;;;6.84;83.20
76553;BME280;65395;53.168;18.156;2023-12-28T11:58:29;100568.77;;;6.84;83.29
76553;BME280;65395;53.168;18.156;2023-12-28T12:00:56;100568.55;;;6.84;83.33
76553;BME280;65395;53.168;18.156;2023-12-28T12:03:25;100567.20;;;6.84;83.01
76553;BME280;65395;53.168;18.156;2023-12-28T12:05:53;100570.39;;;6.84;82.64
76553;BME280;65395;53.168;18.156;2023-12-28T12:08:20;100570.59;;;6.85;82.51
76553;BME280;65395;53.168;18.156;2023-12-28T12:10:47;100565.30;;;6.84;82.73
76553;BME280;65395;53.168;18.156;2023-12-28T12:13:14;100557.56;;;6.83;82.78
76553;BME280;65395;53.168;18.156;2023-12-28T12:15:41;100560.42;;;6.82;82.68
76553;BME280;65395;53.168;18.156;2023-12-28T12:18:09;100563.36;;;6.80;82.71
76553;BME280;65395;53.168;18.156;2023-12-28T12:20:36;100560.22;;;6.79;82.49
76553;BME280;65395;53.168;18.156;2023-12-28T12:23:05;100556.92;;;6.77;82.56
76553;BME280;65395;53.168;18.156;2023-12-28T12:25:32;100557.75;;;6.75;82.38
76553;BME280;65395;53.168;18.156;2023-12-28T12:27:59;100560.11;;;6.74;82.31
76553;BME280;65395;53.168;18.156;2023-12-28T12:30:26;100555.29;;;6.73;82.07
76553;BME280;65395;53.168;18.156;2023-12-28T12:32:53;100547.50;;;6.74;82.12
76553;BME280;65395;53.168;18.156;2023-12-28T12:35:20;100547.91;;;6.73;82.34
76553;BME280;65395;53.168;18.156;2023-12-28T12:37:48;100548.48;;;6.72;82.40
76553;BME280;65395;53.168;18.156;2023-12-28T12:40:17;100551.78;;;6.71;82.45
76553;BME280;65395;53.168;18.156;2023-12-28T12:42:54;100557.34;;;6.72;82.42
76553;BME280;65395;53.168;18.156;2023-12-28T12:45:21;100557.28;;;6.73;82.36
76553;BME280;65395;53.168;18.156;2023-12-28T12:47:48;100561.16;;;6.76;82.35
76553;BME280;65395;53.168;18.156;2023-12-28T12:50:15;100554.09;;;6.78;82.37
76553;BME280;65395;53.168;18.156;2023-12-28T12:52:43;100549.31;;;6.80;82.52
76553;BME280;65395;53.168;18.156;2023-12-28T12:55:12;100558.96;;;6.82;82.44
76553;BME280;65395;53.168;18.156;2023-12-28T12:57:40;100562.70;;;6.84;82.33